createdAt,value
2022-09-28T00:00:47.504Z,9.8
2022-09-28T00:01:50.847Z,9.82
2022-09-28T00:02:47.941Z,9.85
2022-09-28T00:03:47.471Z,9.77
2022-09-28T00:04:47.424Z,9.7
2022-09-28T00:05:47.405Z,9.85
2022-09-28T00:06:47.397Z,9.74
2022-09-28T00:07:50.569Z,9.76
2022-09-28T00:08:47.428Z,9.72
2022-09-28T00:09:47.426Z,9.72
2022-09-28T00:10:47.422Z,9.7
2022-09-28T00:11:47.456Z,9.77
2022-09-28T00:12:50.559Z,9.84
2022-09-28T00:13:47.432Z,9.77
2022-09-28T00:14:47.407Z,9.8
2022-09-28T00:15:47.430Z,9.69
2022-09-28T00:16:47.548Z,9.77
2022-09-28T00:17:50.417Z,9.8
2022-09-28T00:18:50.215Z,9.66
2022-09-28T00:19:47.410Z,9.81
2022-09-28T00:20:47.435Z,9.72
2022-09-28T00:21:47.487Z,9.76
2022-09-28T00:22:47.424Z,9.74
2022-09-28T00:23:50.506Z,9.84
2022-09-28T00:24:47.427Z,9.84
2022-09-28T00:25:47.419Z,9.81
2022-09-28T00:26:47.419Z,9.87
2022-09-28T00:27:47.434Z,9.77
2022-09-28T00:28:47.433Z,9.91
2022-09-28T00:29:47.441Z,9.7
2022-09-28T00:30:47.427Z,9.8
2022-09-28T00:31:47.696Z,9.81
2022-09-28T00:32:47.442Z,9.74
2022-09-28T00:33:47.459Z,9.74
2022-09-28T00:34:50.618Z,9.76
2022-09-28T00:35:47.429Z,9.74
2022-09-28T00:36:47.503Z,9.8
2022-09-28T00:37:47.452Z,9.73
2022-09-28T00:38:47.452Z,9.77
2022-09-28T00:39:47.497Z,9.77
2022-09-28T00:40:47.590Z,9.74
2022-09-28T00:41:47.456Z,9.7
2022-09-28T00:42:47.454Z,9.73
2022-09-28T00:43:47.459Z,9.73
2022-09-28T00:44:47.455Z,9.73
2022-09-28T00:45:50.398Z,9.69
2022-09-28T00:46:47.458Z,9.7
2022-09-28T00:47:47.485Z,9.62
2022-09-28T00:48:47.459Z,9.63
2022-09-28T00:49:47.484Z,9.63
2022-09-28T00:50:47.511Z,9.66
2022-09-28T00:51:47.465Z,9.62
2022-09-28T00:52:47.488Z,9.66
2022-09-28T00:53:47.463Z,9.58
2022-09-28T00:54:47.480Z,9.62
2022-09-28T00:55:47.470Z,9.63
2022-09-28T00:56:50.555Z,9.58
2022-09-28T00:57:47.535Z,9.56
2022-09-28T00:58:47.476Z,9.62
2022-09-28T00:59:47.483Z,9.63
2022-09-28T01:00:47.665Z,9.59
2022-09-28T01:01:47.625Z,9.63
2022-09-28T01:02:47.502Z,9.58
2022-09-28T01:03:47.513Z,9.62
2022-09-28T01:04:47.513Z,9.56
2022-09-28T01:05:47.501Z,9.59
2022-09-28T01:06:47.485Z,9.58
2022-09-28T01:07:50.616Z,9.64
2022-09-28T01:08:47.490Z,9.63
2022-09-28T01:09:47.483Z,9.72
2022-09-28T01:10:47.523Z,9.67
2022-09-28T01:11:47.501Z,9.76
2022-09-28T01:12:47.504Z,9.64
2022-09-28T01:13:47.498Z,9.66
2022-09-28T01:14:50.516Z,9.58
2022-09-28T01:15:47.499Z,9.7
2022-09-28T01:16:47.783Z,9.72
2022-09-28T01:17:47.509Z,9.8
2022-09-28T01:18:50.565Z,9.76
2022-09-28T01:19:47.509Z,9.8
2022-09-28T01:20:48.562Z,9.82
2022-09-28T01:21:47.559Z,9.76
2022-09-28T01:22:47.513Z,9.8
2022-09-28T01:23:47.550Z,9.84
2022-09-28T01:24:47.541Z,9.77
2022-09-28T01:25:47.508Z,9.69
2022-09-28T01:26:47.534Z,9.88
2022-09-28T01:27:47.518Z,9.74
2022-09-28T01:28:47.527Z,9.7
2022-09-28T01:29:50.452Z,9.87
2022-09-28T01:30:47.517Z,9.88
2022-09-28T01:31:47.861Z,9.77
2022-09-28T01:32:47.519Z,9.87
2022-09-28T01:33:47.534Z,9.76
2022-09-28T01:34:47.606Z,9.84
2022-09-28T01:35:47.542Z,9.74
2022-09-28T01:36:47.535Z,9.81
2022-09-28T01:37:47.570Z,9.8
2022-09-28T01:38:47.541Z,9.74
2022-09-28T01:39:47.595Z,9.81
2022-09-28T01:40:47.737Z,9.85
2022-09-28T01:41:47.553Z,9.8
2022-09-28T01:42:47.539Z,9.84
2022-09-28T01:43:47.576Z,9.74
2022-09-28T01:44:47.560Z,9.74
2022-09-28T01:45:47.726Z,9.81
2022-09-28T01:46:47.550Z,9.76
2022-09-28T01:47:47.546Z,9.81
2022-09-28T01:48:47.547Z,9.72
2022-09-28T01:49:47.567Z,9.74
2022-09-28T01:50:49.648Z,9.73
2022-09-28T01:51:47.559Z,9.72
2022-09-28T01:52:47.555Z,9.73
2022-09-28T01:53:47.595Z,9.69
2022-09-28T01:54:47.589Z,9.72
2022-09-28T01:55:47.585Z,9.72
2022-09-28T01:56:47.580Z,9.73
2022-09-28T01:57:47.571Z,9.67
2022-09-28T01:58:47.594Z,9.76
2022-09-28T01:59:47.584Z,9.73
2022-09-28T02:00:47.770Z,9.64
2022-09-28T02:01:50.466Z,9.73
2022-09-28T02:02:47.575Z,9.73
2022-09-28T02:03:47.569Z,9.7
2022-09-28T02:04:47.581Z,9.7
2022-09-28T02:05:47.568Z,9.59
2022-09-28T02:06:47.614Z,9.63
2022-09-28T02:07:47.591Z,9.55
2022-09-28T02:08:47.606Z,9.58
2022-09-28T02:09:47.657Z,9.59
2022-09-28T02:10:47.586Z,9.7
2022-09-28T02:11:47.616Z,9.59
2022-09-28T02:12:50.474Z,9.51
2022-09-28T02:13:48.702Z,9.59
2022-09-28T02:14:47.609Z,9.56
2022-09-28T02:15:47.589Z,9.45
2022-09-28T02:16:47.791Z,9.54
2022-09-28T02:17:47.505Z,9.51
2022-09-28T02:18:47.587Z,9.49
2022-09-28T02:19:47.615Z,9.48
2022-09-28T02:20:47.601Z,9.49
2022-09-28T02:21:47.595Z,9.52
2022-09-28T02:22:47.625Z,9.49
2022-09-28T02:23:50.405Z,9.47
2022-09-28T02:24:47.615Z,9.48
2022-09-28T02:25:47.639Z,9.45
2022-09-28T02:26:47.633Z,9.49
2022-09-28T02:27:47.625Z,9.49
2022-09-28T02:28:50.507Z,9.52
2022-09-28T02:29:47.634Z,9.47
2022-09-28T02:30:47.628Z,9.48
2022-09-28T02:31:47.915Z,9.52
2022-09-28T02:32:47.621Z,9.49
2022-09-28T02:33:47.645Z,9.52
2022-09-28T02:34:50.667Z,9.54
2022-09-28T02:35:47.637Z,9.51
2022-09-28T02:36:47.635Z,9.62
2022-09-28T02:37:47.624Z,9.52
2022-09-28T02:38:47.655Z,9.52
2022-09-28T02:39:48.553Z,9.51
2022-09-28T02:40:47.846Z,9.48
2022-09-28T02:41:47.657Z,9.49
2022-09-28T02:42:47.631Z,9.51
2022-09-28T02:43:47.697Z,9.52
2022-09-28T02:44:48.686Z,9.48
2022-09-28T02:45:50.916Z,9.56
2022-09-28T02:46:47.655Z,9.58
2022-09-28T02:47:47.652Z,9.51
2022-09-28T02:49:22.581Z,9.52
2022-09-28T02:49:47.663Z,9.62
2022-09-28T02:50:50.429Z,9.54
2022-09-28T02:51:47.813Z,9.54
2022-09-28T02:52:47.643Z,9.66
2022-09-28T02:53:47.644Z,9.49
2022-09-28T02:54:47.713Z,9.54
2022-09-28T02:55:47.670Z,9.56
2022-09-28T02:56:47.655Z,9.58
2022-09-28T02:57:47.715Z,9.62
2022-09-28T02:58:47.656Z,9.73
2022-09-28T02:59:47.697Z,9.58
2022-09-28T03:00:47.789Z,9.64
2022-09-28T03:01:50.658Z,9.51
2022-09-28T03:02:47.661Z,9.62
2022-09-28T03:03:47.670Z,9.59
2022-09-28T03:04:47.686Z,9.62
2022-09-28T03:05:47.672Z,9.48
2022-09-28T03:06:47.673Z,9.56
2022-09-28T03:07:47.680Z,9.63
2022-09-28T03:08:47.678Z,9.54
2022-09-28T03:09:47.692Z,9.63
2022-09-28T03:10:47.687Z,9.59
2022-09-28T03:11:47.743Z,9.64
2022-09-28T03:12:50.675Z,9.62
2022-09-28T03:13:47.720Z,9.56
2022-09-28T03:14:47.690Z,9.66
2022-09-28T03:15:52.948Z,9.58
2022-09-28T03:16:47.942Z,9.56
2022-09-28T03:17:47.702Z,9.52
2022-09-28T03:18:47.594Z,9.54
2022-09-28T03:19:47.715Z,9.56
2022-09-28T03:20:47.701Z,9.55
2022-09-28T03:21:47.722Z,9.63
2022-09-28T03:23:25.003Z,9.54
2022-09-28T03:23:50.483Z,9.66
2022-09-28T03:24:47.711Z,9.58
2022-09-28T03:25:47.740Z,9.67
2022-09-28T03:26:47.719Z,9.54
2022-09-28T03:27:47.753Z,9.58
2022-09-28T03:28:47.730Z,9.63
2022-09-28T03:29:47.755Z,9.62
2022-09-28T03:30:47.736Z,9.58
2022-09-28T03:31:47.967Z,9.54
2022-09-28T03:32:47.756Z,9.48
2022-09-28T03:33:47.725Z,9.56
2022-09-28T03:34:49.304Z,9.64
2022-09-28T03:35:47.773Z,9.54
2022-09-28T03:36:47.710Z,9.63
2022-09-28T03:37:47.715Z,9.49
2022-09-28T03:38:47.716Z,9.48
2022-09-28T03:39:47.739Z,9.55
2022-09-28T03:40:47.981Z,9.62
2022-09-28T03:41:47.718Z,9.54
2022-09-28T03:42:47.779Z,9.62
2022-09-28T03:43:47.721Z,9.48
2022-09-28T03:44:47.768Z,9.48
2022-09-28T03:45:50.708Z,9.48
2022-09-28T03:46:47.728Z,9.44
2022-09-28T03:47:47.763Z,9.49
2022-09-28T03:48:47.778Z,9.51
2022-09-28T03:49:47.742Z,9.48
2022-09-28T03:50:47.737Z,9.52
2022-09-28T03:51:47.730Z,9.52
2022-09-28T03:52:47.737Z,9.49
2022-09-28T03:53:47.739Z,9.45
2022-09-28T03:54:53.557Z,9.48
2022-09-28T03:55:47.736Z,9.55
2022-09-28T03:56:50.836Z,9.51
2022-09-28T03:57:47.762Z,9.48
2022-09-28T03:58:47.794Z,9.45
2022-09-28T03:59:47.739Z,9.51
2022-09-28T04:00:47.887Z,9.45
2022-09-28T04:01:48.020Z,9.51
2022-09-28T04:02:47.750Z,9.48
2022-09-28T04:03:47.798Z,9.49
2022-09-28T04:04:47.776Z,9.49
2022-09-28T04:05:47.773Z,9.48
2022-09-28T04:06:47.763Z,9.47
2022-09-28T04:07:47.762Z,9.49
2022-09-28T04:08:47.801Z,9.42
2022-09-28T04:09:47.768Z,9.4
2022-09-28T04:10:47.770Z,9.42
2022-09-28T04:12:07.885Z,9.4
2022-09-28T04:12:47.754Z,9.45
2022-09-28T04:13:47.808Z,9.44
2022-09-28T04:14:47.795Z,9.44
2022-09-28T04:15:47.779Z,9.49
2022-09-28T04:16:48.050Z,9.45
2022-09-28T04:17:47.779Z,9.4
2022-09-28T04:18:47.769Z,9.48
2022-09-28T04:19:47.818Z,9.45
2022-09-28T04:20:47.783Z,9.39
2022-09-28T04:21:47.778Z,9.45
2022-09-28T04:22:47.791Z,9.47
2022-09-28T04:23:47.777Z,9.49
2022-09-28T04:24:47.802Z,9.51
2022-09-28T04:25:50.528Z,9.62
2022-09-28T04:26:47.794Z,9.48
2022-09-28T04:27:47.826Z,9.54
2022-09-28T04:28:50.598Z,9.59
2022-09-28T04:29:47.884Z,9.52
2022-09-28T04:30:47.818Z,9.59
2022-09-28T04:31:48.117Z,9.54
2022-09-28T04:32:47.825Z,9.58
2022-09-28T04:33:47.808Z,9.52
2022-09-28T04:34:49.074Z,9.58
2022-09-28T04:35:50.605Z,9.55
2022-09-28T04:36:47.800Z,9.64
2022-09-28T04:37:47.801Z,9.59
2022-09-28T04:39:03.129Z,9.69
2022-09-28T04:39:52.948Z,9.72
2022-09-28T04:40:48.008Z,9.67
2022-09-28T04:41:47.813Z,9.72
2022-09-28T04:42:47.822Z,9.59
2022-09-28T04:43:47.817Z,9.69
2022-09-28T04:44:47.829Z,9.56
2022-09-28T04:45:48.011Z,9.7
2022-09-28T04:46:47.835Z,9.66
2022-09-28T04:47:47.809Z,9.74
2022-09-28T04:48:47.849Z,9.69
2022-09-28T04:49:47.815Z,9.73
2022-09-28T04:50:50.685Z,9.67
2022-09-28T04:51:47.852Z,9.7
2022-09-28T04:52:47.820Z,9.7
2022-09-28T04:53:47.829Z,9.64
2022-09-28T04:54:47.830Z,9.67
2022-09-28T04:55:48.628Z,9.63
2022-09-28T04:56:47.842Z,9.7
2022-09-28T04:57:47.844Z,9.62
2022-09-28T04:58:54.066Z,9.62
2022-09-28T04:59:47.849Z,9.72
2022-09-28T05:00:48.057Z,9.72
2022-09-28T05:01:50.860Z,9.73
2022-09-28T05:02:48.209Z,9.66
2022-09-28T05:03:47.946Z,9.64
2022-09-28T05:04:47.869Z,9.7
2022-09-28T05:05:47.866Z,9.67
2022-09-28T05:06:50.788Z,9.67
2022-09-28T05:07:47.764Z,9.7
2022-09-28T05:08:47.881Z,9.72
2022-09-28T05:09:47.858Z,9.69
2022-09-28T05:10:48.071Z,9.7
2022-09-28T05:11:47.923Z,9.69
2022-09-28T05:12:50.640Z,9.69
2022-09-28T05:13:48.022Z,9.76
2022-09-28T05:14:48.288Z,9.8
2022-09-28T05:15:47.869Z,9.74
2022-09-28T05:16:48.102Z,9.73
2022-09-28T05:17:51.218Z,9.77
2022-09-28T05:18:47.867Z,9.8
2022-09-28T05:19:47.995Z,9.85
2022-09-28T05:20:47.960Z,9.9
2022-09-28T05:21:47.867Z,9.74
2022-09-28T05:22:48.046Z,9.72
2022-09-28T05:23:47.888Z,9.76
2022-09-28T05:24:48.061Z,9.77
2022-09-28T05:25:47.949Z,9.69
2022-09-28T05:26:47.894Z,9.84
2022-09-28T05:27:48.187Z,9.74
2022-09-28T05:28:51.095Z,9.76
2022-09-28T05:29:47.883Z,9.81
2022-09-28T05:30:47.889Z,9.81
2022-09-28T05:31:49.253Z,9.87
2022-09-28T05:32:48.774Z,9.84
2022-09-28T05:33:48.087Z,9.85
2022-09-28T05:34:48.122Z,9.84
2022-09-28T05:35:54.476Z,9.88
2022-09-28T05:36:48.044Z,9.92
2022-09-28T05:37:48.066Z,9.9
2022-09-28T05:38:47.930Z,9.94
2022-09-28T05:39:50.682Z,9.88
2022-09-28T05:40:48.753Z,9.91
2022-09-28T05:41:47.900Z,9.97
2022-09-28T05:42:47.905Z,10
2022-09-28T05:43:47.894Z,10.02
2022-09-28T05:44:47.981Z,9.99
2022-09-28T05:45:51.597Z,10.06
2022-09-28T05:46:48.265Z,10.05
2022-09-28T05:47:48.035Z,10.09
2022-09-28T05:48:47.909Z,10.02
2022-09-28T05:49:47.931Z,10.03
2022-09-28T05:50:49.372Z,10.12
2022-09-28T05:51:47.907Z,10.13
2022-09-28T05:52:47.942Z,10.15
2022-09-28T05:53:47.916Z,10.12
2022-09-28T05:54:47.943Z,10.23
2022-09-28T05:55:47.997Z,10.13
2022-09-28T05:56:47.920Z,10.21
2022-09-28T05:57:47.933Z,10.27
2022-09-28T05:58:47.916Z,10.25
2022-09-28T05:59:47.953Z,10.25
2022-09-28T06:00:48.035Z,10.25
2022-09-28T06:01:50.784Z,10.34
2022-09-28T06:02:48.214Z,10.41
2022-09-28T06:03:48.004Z,10.34
2022-09-28T06:04:48.365Z,10.41
2022-09-28T06:05:47.982Z,10.31
2022-09-28T06:06:47.938Z,10.36
2022-09-28T06:07:47.945Z,10.34
2022-09-28T06:08:47.959Z,10.31
2022-09-28T06:09:47.973Z,10.42
2022-09-28T06:10:48.006Z,10.48
2022-09-28T06:11:47.946Z,10.57
2022-09-28T06:12:50.981Z,10.51
2022-09-28T06:13:47.959Z,10.51
2022-09-28T06:14:47.959Z,10.51
2022-09-28T06:15:47.997Z,10.61
2022-09-28T06:16:48.796Z,10.67
2022-09-28T06:17:47.973Z,10.65
2022-09-28T06:18:47.949Z,10.62
2022-09-28T06:19:47.960Z,10.64
2022-09-28T06:20:48.031Z,10.61
2022-09-28T06:21:48.037Z,10.62
2022-09-28T06:22:47.962Z,10.68
2022-09-28T06:23:53.416Z,10.72
2022-09-28T06:24:48.009Z,10.77
2022-09-28T06:25:47.817Z,10.72
2022-09-28T06:26:48.000Z,10.94
2022-09-28T06:27:47.999Z,10.67
2022-09-28T06:28:48.002Z,10.68
2022-09-28T06:29:47.989Z,10.79
2022-09-28T06:30:48.314Z,10.76
2022-09-28T06:31:48.002Z,10.84
2022-09-28T06:32:47.978Z,10.69
2022-09-28T06:33:47.973Z,10.72
2022-09-28T06:34:49.895Z,10.79
2022-09-28T06:35:47.992Z,10.8
2022-09-28T06:36:47.995Z,10.79
2022-09-28T06:37:48.012Z,10.76
2022-09-28T06:38:47.992Z,10.79
2022-09-28T06:39:47.978Z,10.8
2022-09-28T06:40:48.234Z,10.87
2022-09-28T06:41:48.006Z,10.84
2022-09-28T06:42:48.015Z,10.84
2022-09-28T06:43:47.981Z,10.84
2022-09-28T06:44:47.990Z,10.94
2022-09-28T06:45:48.258Z,10.94
2022-09-28T06:46:48.046Z,10.87
2022-09-28T06:47:47.999Z,10.89
2022-09-28T06:48:47.987Z,10.92
2022-09-28T06:49:48.000Z,10.83
2022-09-28T06:50:48.018Z,10.9
2022-09-28T06:51:48.009Z,10.95
2022-09-28T06:52:48.010Z,11.07
2022-09-28T06:53:48.031Z,11.04
2022-09-28T06:54:48.008Z,11.07
2022-09-28T06:55:50.809Z,11.05
2022-09-28T06:56:48.036Z,11.07
2022-09-28T06:57:48.009Z,11.08
2022-09-28T06:58:48.054Z,11.08
2022-09-28T06:59:48.024Z,11.16
2022-09-28T07:00:48.159Z,11.12
2022-09-28T07:01:48.235Z,11.18
2022-09-28T07:02:48.215Z,11.13
2022-09-28T07:03:49.679Z,11.22
2022-09-28T07:04:48.058Z,11.23
2022-09-28T07:05:48.020Z,11.27
2022-09-28T07:07:48.035Z,11.2
2022-09-28T07:09:06.186Z,11.18
2022-09-28T07:09:57.597Z,11.16
2022-09-28T07:10:48.048Z,11.25
2022-09-28T07:11:48.035Z,11.27
2022-09-28T07:12:48.068Z,11.27
2022-09-28T07:13:55.809Z,11.22
2022-09-28T07:14:53.645Z,11.3
2022-09-28T07:15:48.038Z,11.3
2022-09-28T07:17:16.821Z,11.25
2022-09-28T07:18:06.079Z,11.25
2022-09-28T07:18:48.034Z,11.15
2022-09-28T07:19:48.045Z,11.23
2022-09-28T07:20:58.312Z,11.25
2022-09-28T07:22:04.946Z,11.26
2022-09-28T07:22:48.597Z,11.25
2022-09-28T07:24:02.524Z,11.31
2022-09-28T07:24:48.052Z,11.35
2022-09-28T07:25:48.188Z,11.34
2022-09-28T07:26:48.214Z,11.33
2022-09-28T07:27:48.070Z,11.44
2022-09-28T07:28:50.843Z,11.43
2022-09-28T07:29:48.105Z,11.44
2022-09-28T07:30:48.388Z,11.37
2022-09-28T07:31:48.132Z,11.31
2022-09-28T07:32:48.068Z,11.4
2022-09-28T07:33:51.137Z,11.41
2022-09-28T07:34:48.358Z,11.35
2022-09-28T07:35:48.087Z,11.31
2022-09-28T07:36:48.102Z,11.45
2022-09-28T07:37:48.095Z,11.34
2022-09-28T07:38:48.090Z,11.23
2022-09-28T07:39:51.187Z,11.25
2022-09-28T07:40:52.988Z,11.2
2022-09-28T07:41:48.097Z,11.34
2022-09-28T07:42:48.095Z,11.27
2022-09-28T07:43:48.107Z,11.34
2022-09-28T07:44:50.977Z,11.23
2022-09-28T07:45:48.295Z,11.37
2022-09-28T07:46:48.156Z,11.35
2022-09-28T07:47:48.104Z,11.26
2022-09-28T07:48:48.263Z,11.3
2022-09-28T07:49:48.145Z,11.38
2022-09-28T07:50:50.940Z,11.22
2022-09-28T07:51:48.128Z,11.26
2022-09-28T07:52:48.099Z,11.35
2022-09-28T07:53:48.117Z,11.41
2022-09-28T07:54:48.106Z,11.45
2022-09-28T07:55:51.253Z,11.41
2022-09-28T07:56:48.126Z,11.44
2022-09-28T07:57:48.119Z,11.4
2022-09-28T07:58:48.114Z,11.38
2022-09-28T07:59:48.133Z,11.37
2022-09-28T08:00:48.496Z,11.38
2022-09-28T08:01:51.970Z,11.27
2022-09-28T08:02:48.388Z,11.2
2022-09-28T08:03:48.120Z,11.27
2022-09-28T08:04:48.115Z,11.31
2022-09-28T08:05:48.129Z,11.41
2022-09-28T08:06:51.773Z,11.38
2022-09-28T08:07:48.123Z,11.44
2022-09-28T08:08:48.138Z,11.4
2022-09-28T08:09:48.133Z,11.48
2022-09-28T08:10:51.804Z,11.43
2022-09-28T08:11:48.179Z,11.49
2022-09-28T08:12:48.126Z,11.51
2022-09-28T08:13:48.138Z,11.45
2022-09-28T08:14:48.143Z,11.63
2022-09-28T08:15:48.145Z,11.71
2022-09-28T08:16:52.089Z,11.78
2022-09-28T08:17:50.903Z,11.6
2022-09-28T08:18:48.141Z,11.74
2022-09-28T08:19:48.148Z,11.86
2022-09-28T08:20:54.008Z,11.71
2022-09-28T08:21:48.186Z,11.85
2022-09-28T08:22:48.246Z,11.91
2022-09-28T08:23:48.147Z,11.93
2022-09-28T08:24:48.169Z,11.88
2022-09-28T08:25:48.154Z,11.88
2022-09-28T08:26:48.188Z,11.93
2022-09-28T08:27:48.176Z,12.1
2022-09-28T08:28:51.060Z,11.96
2022-09-28T08:29:48.164Z,11.68
2022-09-28T08:30:48.558Z,11.89
2022-09-28T08:31:48.194Z,11.86
2022-09-28T08:32:48.297Z,11.76
2022-09-28T08:33:48.319Z,11.76
2022-09-28T08:34:48.170Z,11.76
2022-09-28T08:35:48.173Z,11.83
2022-09-28T08:36:48.199Z,11.81
2022-09-28T08:37:57.762Z,11.95
2022-09-28T08:38:48.177Z,11.88
2022-09-28T08:39:51.253Z,11.93
2022-09-28T08:40:48.492Z,12
2022-09-28T08:41:48.260Z,11.89
2022-09-28T08:42:48.174Z,11.93
2022-09-28T08:43:48.212Z,11.97
2022-09-28T08:44:48.215Z,12.08
2022-09-28T08:45:48.349Z,12.37
2022-09-28T08:46:48.208Z,12.32
2022-09-28T08:47:48.187Z,12.47
2022-09-28T08:49:31.020Z,12.21
2022-09-28T08:49:48.393Z,12.39
2022-09-28T08:50:51.240Z,12.39
2022-09-28T08:51:48.242Z,12.53
2022-09-28T08:52:48.205Z,12.68
2022-09-28T08:53:48.208Z,12.8
2022-09-28T08:54:48.209Z,12.78
2022-09-28T08:55:48.197Z,12.73
2022-09-28T08:56:48.233Z,12.84
2022-09-28T08:57:48.207Z,12.86
2022-09-28T08:58:48.203Z,12.94
2022-09-28T08:59:48.276Z,13.03
2022-09-28T09:00:48.794Z,13.02
2022-09-28T09:01:48.606Z,13.03
2022-09-28T09:02:48.394Z,13.01
2022-09-28T09:03:48.212Z,13.23
2022-09-28T09:04:48.264Z,13.12
2022-09-28T09:05:48.220Z,13.2
2022-09-28T09:06:48.234Z,13.33
2022-09-28T09:07:48.222Z,13.2
2022-09-28T09:08:48.230Z,13.12
2022-09-28T09:09:48.229Z,13.37
2022-09-28T09:10:48.231Z,13.71
2022-09-28T09:11:48.262Z,14.12
2022-09-28T09:12:48.433Z,14.49
2022-09-28T09:13:48.291Z,14.66
2022-09-28T09:14:48.232Z,14.61
2022-09-28T09:15:48.316Z,14.66
2022-09-28T09:16:48.404Z,15.04
2022-09-28T09:17:48.275Z,15.14
2022-09-28T09:18:48.241Z,15.26
2022-09-28T09:19:48.242Z,15.14
2022-09-28T09:20:48.291Z,15.18
2022-09-28T09:21:48.260Z,15.5
2022-09-28T09:22:51.076Z,15.52
2022-09-28T09:23:48.278Z,15.45
2022-09-28T09:24:48.247Z,15.44
2022-09-28T09:25:48.263Z,15.29
2022-09-28T09:26:48.282Z,15.15
2022-09-28T09:27:48.278Z,15.22
2022-09-28T09:28:48.268Z,15.32
2022-09-28T09:29:48.255Z,15.26
2022-09-28T09:30:48.416Z,15.26
2022-09-28T09:31:48.128Z,15.15
2022-09-28T09:32:48.266Z,15.41
2022-09-28T09:33:51.003Z,15.69
2022-09-28T09:34:48.349Z,15.91
2022-09-28T09:35:48.265Z,15.83
2022-09-28T09:36:48.326Z,15.72
2022-09-28T09:37:48.268Z,15.69
2022-09-28T09:38:48.830Z,15.43
2022-09-28T09:39:48.279Z,15.33
2022-09-28T09:40:51.243Z,15.14
2022-09-28T09:41:48.302Z,15.17
2022-09-28T09:42:48.294Z,15.15
2022-09-28T09:43:48.309Z,15.05
2022-09-28T09:44:51.073Z,15.07
2022-09-28T09:45:48.470Z,14.81
2022-09-28T09:46:51.068Z,14.51
2022-09-28T09:47:48.326Z,14.7
2022-09-28T09:48:48.286Z,14.66
2022-09-28T09:49:48.460Z,14.7
2022-09-28T09:50:51.182Z,14.66
2022-09-28T09:51:48.314Z,14.71
2022-09-28T09:52:49.073Z,14.7
2022-09-28T09:53:48.443Z,14.68
2022-09-28T09:54:48.298Z,14.53
2022-09-28T09:55:51.091Z,14.28
2022-09-28T09:56:48.309Z,14.38
2022-09-28T09:57:48.324Z,14.22
2022-09-28T09:58:48.320Z,14.34
2022-09-28T09:59:48.312Z,14.34
2022-09-28T10:00:51.112Z,14.38
2022-09-28T10:01:48.541Z,14.7
2022-09-28T10:02:48.564Z,14.58
2022-09-28T10:03:48.327Z,14.53
2022-09-28T10:04:48.313Z,14.53
2022-09-28T10:05:48.315Z,14.45
2022-09-28T10:06:51.338Z,14.31
2022-09-28T10:07:48.341Z,14.38
2022-09-28T10:08:48.388Z,14.25
2022-09-28T10:09:48.336Z,14.05
2022-09-28T10:10:48.335Z,14.19
2022-09-28T10:11:51.157Z,14.13
2022-09-28T10:12:49.605Z,14.07
2022-09-28T10:13:48.340Z,14.12
2022-09-28T10:14:48.354Z,14.07
2022-09-28T10:15:48.346Z,14.11
2022-09-28T10:16:48.623Z,14.03
2022-09-28T10:17:51.373Z,13.78
2022-09-28T10:18:48.348Z,13.76
2022-09-28T10:19:48.348Z,13.73
2022-09-28T10:20:48.344Z,13.79
2022-09-28T10:21:48.349Z,13.64
2022-09-28T10:22:51.815Z,13.68
2022-09-28T10:23:48.400Z,13.6
2022-09-28T10:24:48.400Z,13.58
2022-09-28T10:25:48.373Z,13.5
2022-09-28T10:26:48.351Z,13.58
2022-09-28T10:27:48.402Z,13.6
2022-09-28T10:28:48.356Z,13.82
2022-09-28T10:29:48.361Z,13.91
2022-09-28T10:30:48.926Z,13.89
2022-09-28T10:31:48.255Z,14.04
2022-09-28T10:32:48.392Z,14.45
2022-09-28T10:33:51.592Z,14.81
2022-09-28T10:34:53.535Z,15.07
2022-09-28T10:35:48.373Z,14.97
2022-09-28T10:36:48.537Z,14.99
2022-09-28T10:37:48.399Z,15.3
2022-09-28T10:38:48.383Z,15.5
2022-09-28T10:39:48.379Z,15.35
2022-09-28T10:40:48.739Z,15.39
2022-09-28T10:41:48.392Z,15.35
2022-09-28T10:42:48.407Z,15.36
2022-09-28T10:43:57.986Z,15.55
2022-09-28T10:44:51.511Z,15.87
2022-09-28T10:45:48.587Z,15.69
2022-09-28T10:46:48.416Z,15.51
2022-09-28T10:47:48.413Z,15.78
2022-09-28T10:48:48.399Z,16.22
2022-09-28T10:49:51.773Z,16.16
2022-09-28T10:50:48.400Z,16.41
2022-09-28T10:51:48.405Z,16.59
2022-09-28T10:52:48.429Z,16.92
2022-09-28T10:53:48.426Z,17.05
2022-09-28T10:54:48.422Z,16.91
2022-09-28T10:55:51.197Z,17.32
2022-09-28T10:56:48.434Z,17.28
2022-09-28T10:57:48.450Z,17.28
2022-09-28T10:58:48.446Z,17.57
2022-09-28T10:59:48.438Z,17.76
2022-09-28T11:00:48.427Z,17.97
2022-09-28T11:01:48.702Z,17.94
2022-09-28T11:02:48.581Z,17.35
2022-09-28T11:03:48.424Z,17.37
2022-09-28T11:04:48.492Z,17.35
2022-09-28T11:05:48.441Z,17.46
2022-09-28T11:06:54.404Z,17.65
2022-09-28T11:07:48.451Z,17.13
2022-09-28T11:08:49.304Z,17.27
2022-09-28T11:09:52.139Z,17.24
2022-09-28T11:10:48.265Z,17.2
2022-09-28T11:11:48.492Z,16.98
2022-09-28T11:12:48.475Z,17.1
2022-09-28T11:13:48.455Z,16.97
2022-09-28T11:14:48.430Z,16.86
2022-09-28T11:15:48.471Z,16.74
2022-09-28T11:16:48.662Z,17.01
2022-09-28T11:17:51.353Z,17.24
2022-09-28T11:18:48.451Z,16.98
2022-09-28T11:19:48.453Z,17.27
2022-09-28T11:20:50.151Z,17.44
2022-09-28T11:21:48.496Z,17.24
2022-09-28T11:22:51.768Z,17.59
2022-09-28T11:23:48.454Z,17.65
2022-09-28T11:24:48.460Z,17.98
2022-09-28T11:25:48.513Z,18.08
2022-09-28T11:26:48.458Z,18.06
2022-09-28T11:27:48.516Z,18.27
2022-09-28T11:28:48.581Z,18.34
2022-09-28T11:29:48.471Z,18.58
2022-09-28T11:30:48.691Z,18.53
2022-09-28T11:31:48.472Z,18.52
2022-09-28T11:32:48.528Z,18.67
2022-09-28T11:33:53.557Z,18.6
2022-09-28T11:35:06.651Z,18.79
2022-09-28T11:35:48.516Z,18.96
2022-09-28T11:36:48.502Z,19.09
2022-09-28T11:37:48.587Z,19.15
2022-09-28T11:38:48.519Z,19.35
2022-09-28T11:39:48.512Z,19.2
2022-09-28T11:40:48.859Z,19.26
2022-09-28T11:41:51.322Z,19.3
2022-09-28T11:42:48.591Z,19.35
2022-09-28T11:43:48.551Z,19.22
2022-09-28T11:44:48.575Z,19
2022-09-28T11:45:48.750Z,18.68
2022-09-28T11:46:48.882Z,18.57
2022-09-28T11:47:48.535Z,18.34
2022-09-28T11:48:48.599Z,18.28
2022-09-28T11:49:51.641Z,17.91
2022-09-28T11:50:48.508Z,17.8
2022-09-28T11:51:48.512Z,17.54
2022-09-28T11:52:48.560Z,17.6
2022-09-28T11:53:50.465Z,17.68
2022-09-28T11:54:48.514Z,17.52
2022-09-28T11:55:48.509Z,17.79
2022-09-28T11:56:48.554Z,17.88
2022-09-28T11:57:48.551Z,17.66
2022-09-28T11:58:48.512Z,17.79
2022-09-28T11:59:48.540Z,17.91
2022-09-28T12:00:51.647Z,17.82
2022-09-28T12:01:48.735Z,17.8
2022-09-28T12:02:49.094Z,17.53
2022-09-28T12:03:48.978Z,17.59
2022-09-28T12:04:48.527Z,17.71
2022-09-28T12:05:48.523Z,17.49
2022-09-28T12:06:48.530Z,17.56
2022-09-28T12:07:48.557Z,17.54
2022-09-28T12:08:48.529Z,17.76
2022-09-28T12:09:49.028Z,17.68
2022-09-28T12:10:50.242Z,17.56
2022-09-28T12:11:51.696Z,17.65
2022-09-28T12:12:48.565Z,17.53
2022-09-28T12:13:48.552Z,17.78
2022-09-28T12:14:48.395Z,17.78
2022-09-28T12:17:28.031Z,17.5
2022-09-28T12:18:28.237Z,17.44
2022-09-28T12:19:27.777Z,17.32
2022-09-28T12:20:27.789Z,17.22
2022-09-28T12:21:27.790Z,17.2
2022-09-28T12:22:27.788Z,17.13
2022-09-28T12:23:27.814Z,17.13
2022-09-28T12:24:27.790Z,16.91
2022-09-28T12:25:27.808Z,16.86
2022-09-28T12:26:27.797Z,16.92
2022-09-28T12:27:27.798Z,16.99
2022-09-28T12:28:27.829Z,16.92
2022-09-28T12:29:27.792Z,16.91
2022-09-28T12:30:27.797Z,17.07
2022-09-28T12:31:28.004Z,16.91
2022-09-28T12:32:27.824Z,16.89
2022-09-28T12:33:27.870Z,16.89
2022-09-28T12:34:27.813Z,17.16
2022-09-28T12:35:27.835Z,17.14
2022-09-28T12:36:27.828Z,17.17
2022-09-28T12:37:27.822Z,17.24
2022-09-28T12:38:27.859Z,17.14
2022-09-28T12:39:59.950Z,17.2
2022-09-28T12:40:28.000Z,17.37
2022-09-28T12:41:27.844Z,17.24
2022-09-28T12:42:30.926Z,17.2
2022-09-28T12:43:27.843Z,17.1
2022-09-28T12:44:27.829Z,17.14
2022-09-28T12:45:27.854Z,17.35
2022-09-28T12:46:28.005Z,17.53
2022-09-28T12:47:27.858Z,17.47
2022-09-28T12:48:27.859Z,17.53
2022-09-28T12:50:42.798Z,17.35
2022-09-28T12:51:05.110Z,17.56
2022-09-28T12:52:14.381Z,17.24
2022-09-28T12:53:07.746Z,17.31
2022-09-28T12:54:05.523Z,17.52
2022-09-28T12:55:04.641Z,17.42
2022-09-28T12:56:04.486Z,17.71
2022-09-28T12:57:07.282Z,17.57
2022-09-28T12:58:04.557Z,17.72
2022-09-28T12:59:04.433Z,17.63
2022-09-28T13:00:04.439Z,17.84
2022-09-28T13:01:04.465Z,17.82
2022-09-28T13:02:04.531Z,17.95
2022-09-28T13:03:04.393Z,18
2022-09-28T13:04:04.457Z,18.28
2022-09-28T13:05:04.485Z,18.36
2022-09-28T13:06:04.440Z,18.26
2022-09-28T13:07:04.442Z,18.23
2022-09-28T13:08:07.471Z,17.87
2022-09-28T13:09:04.649Z,17.95
2022-09-28T13:10:04.506Z,17.86